Time;durP1;ratioP1;P1;durP2;ratioP2;P2;SDS_P1;SDS_P2;PMS_P1;PMS_P2;Temp;Humidity;BMP_temperature;BMP_pressure;BME280_temperature;BME280_humidity;BME280_pressure;Samples;Min_cycle;Max_cycle;Signal;HPM_P1;HPM_P2
2022/06/07 00:01:12;;;;;;;3.90;1.40;;;;;;;22.25;56.42;99693.75;4348579;32;35125;-90
2022/06/07 00:03:40;;;;;;;3.12;1.70;;;;;;;22.31;56.30;99692.62;4337582;32;32169;-90
2022/06/07 00:06:09;;;;;;;3.15;1.75;;;;;;;22.17;56.66;99697.13;4337822;32;31725;-91
2022/06/07 00:08:42;;;;;;;4.07;1.70;;;;;;;22.17;56.60;99697.13;4350751;32;33803;-90
2022/06/07 00:11:10;;;;;;;2.95;1.52;;;;;;;22.12;56.81;99694.38;4350940;32;34516;-91
2022/06/07 00:13:38;;;;;;;3.78;1.67;;;;;;;22.06;56.81;99698.31;4350588;32;34179;-90
2022/06/07 00:16:09;;;;;;;3.22;1.60;;;;;;;21.93;57.04;99692.19;4350201;32;31678;-90
2022/06/07 00:18:40;;;;;;;3.62;1.83;;;;;;;21.95;57.12;99686.31;4350583;32;32743;-90
2022/06/07 00:21:16;;;;;;;2.95;1.48;;;;;;;22.00;57.01;99689.09;4350009;32;34351;-89
2022/06/07 00:23:46;;;;;;;3.75;1.60;;;;;;;21.93;57.24;99689.37;4350611;32;33898;-89
2022/06/07 00:26:17;;;;;;;7.18;1.40;;;;;;;21.98;56.88;99688.53;4338680;32;32849;-90
2022/06/07 00:28:48;;;;;;;3.28;1.65;;;;;;;21.97;56.76;99684.91;4350171;32;33640;-90
2022/06/07 00:31:21;;;;;;;5.95;1.50;;;;;;;21.91;56.98;99688.84;4338600;32;32926;-90
2022/06/07 00:33:51;;;;;;;3.85;1.60;;;;;;;21.94;56.91;99682.69;4350086;32;33969;-90
2022/06/07 00:36:20;;;;;;;3.17;1.62;;;;;;;21.80;57.21;99681.59;4338172;32;31611;-90
2022/06/07 00:38:49;;;;;;;3.37;1.77;;;;;;;21.86;56.96;99682.41;4338119;32;32103;-90
2022/06/07 00:41:19;;;;;;;4.00;1.65;;;;;;;21.69;57.35;99683.56;4350039;32;34580;-89
2022/06/07 00:44:33;;;;;;;3.80;1.50;;;;;;;21.82;56.95;99684.94;4349411;32;33958;-90
2022/06/07 00:47:03;;;;;;;2.78;1.37;;;;;;;21.92;56.70;99681.28;4349170;32;31694;-89
2022/06/07 00:49:47;;;;;;;5.72;2.70;;;;;;;21.73;57.19;99681.03;4350437;32;33995;-89
2022/06/07 00:52:16;;;;;;;3.62;1.50;;;;;;;21.70;57.31;99685.25;4364769;32;34300;-90
2022/06/07 00:54:44;;;;;;;4.95;2.37;;;;;;;21.68;57.31;99675.47;4352798;32;33515;-89
2022/06/07 00:57:13;;;;;;;4.10;2.22;;;;;;;21.65;57.39;99679.66;4352881;32;34110;-90
2022/06/07 00:59:43;;;;;;;4.90;2.10;;;;;;;21.68;57.18;99681.06;4352054;32;34464;-90
2022/06/07 01:02:11;;;;;;;3.70;1.70;;;;;;;21.69;57.35;99680.78;4353113;32;35155;-90
2022/06/07 01:04:42;;;;;;;3.58;1.67;;;;;;;21.73;57.30;99674.63;4352540;32;33898;-90
2022/06/07 01:12:57;;;;;;;3.30;1.40;;;;;;;21.58;57.68;99665.16;4354349;32;32865;-88
2022/06/07 01:15:29;;;;;;;4.07;1.70;;;;;;;21.63;57.50;99664.31;4350932;32;32639;-88
2022/06/07 01:17:58;;;;;;;2.67;1.55;;;;;;;21.59;57.58;99668.78;4352969;32;33864;-89
2022/06/07 01:20:28;;;;;;;3.00;1.70;;;;;;;21.45;57.89;99674.09;4340403;32;33240;-89
2022/06/07 01:22:59;;;;;;;2.92;1.48;;;;;;;21.52;57.54;99671.84;4352323;32;34439;-88
2022/06/07 01:25:27;;;;;;;2.83;1.52;;;;;;;21.47;57.66;99660.69;4352982;32;34815;-88
2022/06/07 01:27:55;;;;;;;2.78;1.50;;;;;;;21.50;57.58;99656.50;4352168;32;33203;-91
2022/06/07 01:30:25;;;;;;;2.97;1.52;;;;;;;21.51;57.54;99659.00;4364618;32;34504;-90
2022/06/07 01:32:54;;;;;;;2.87;1.60;;;;;;;21.46;57.62;99653.44;4352288;32;35271;-90
2022/06/07 01:35:24;;;;;;;4.78;1.62;;;;;;;21.57;57.34;99649.50;4352144;32;32423;-90
2022/06/07 01:37:52;;;;;;;2.70;1.42;;;;;;;21.51;57.84;99655.38;4351609;32;31981;-89
2022/06/07 01:43:08;;;;;;;2.97;1.50;;;;;;;21.53;57.84;99647.56;4354260;32;32662;-90
2022/06/07 01:45:36;;;;;;;4.78;1.85;;;;;;;21.31;58.70;99651.53;4352295;32;34138;-90
2022/06/07 01:48:09;;;;;;;3.17;1.67;;;;;;;21.28;58.67;99649.28;4352672;32;34011;-90
2022/06/07 01:50:37;;;;;;;3.08;1.65;;;;;;;21.38;58.14;99651.25;4349756;32;33795;-91
2022/06/07 01:53:07;;;;;;;5.93;1.50;;;;;;;21.35;58.15;99655.44;4349722;32;33787;-91
2022/06/07 01:55:37;;;;;;;5.90;1.55;;;;;;;21.36;58.08;99654.31;4349553;32;33630;-91
2022/06/07 01:58:07;;;;;;;5.28;1.70;;;;;;;21.50;57.63;99648.13;4349812;32;33184;-90
2022/06/07 02:00:36;;;;;;;3.25;1.55;;;;;;;21.32;58.02;99653.19;4350461;32;33845;-90
2022/06/07 02:03:09;;;;;;;2.37;1.33;;;;;;;21.23;58.16;99649.28;4349872;32;33853;-90
2022/06/07 02:05:37;;;;;;;2.85;1.50;;;;;;;21.36;57.77;99645.94;4349513;32;34108;-90
2022/06/07 02:08:07;;;;;;;4.35;1.65;;;;;;;21.31;57.89;99640.34;4350062;32;32754;-90
2022/06/07 02:10:39;;;;;;;4.37;1.70;;;;;;;21.25;58.03;99635.91;4338085;32;31804;-90
2022/06/07 02:13:13;;;;;;;3.45;1.60;;;;;;;21.31;57.88;99636.72;4349734;32;34203;-90
2022/06/07 02:15:40;;;;;;;3.42;1.90;;;;;;;21.36;57.79;99633.94;4349780;32;34121;-90
2022/06/07 02:18:11;;;;;;;2.35;1.40;;;;;;;21.27;58.00;99627.25;4349717;32;33802;-90
2022/06/07 02:20:42;;;;;;;3.80;1.35;;;;;;;21.29;57.89;99631.44;4338090;32;32356;-90
2022/06/07 02:23:10;;;;;;;3.28;1.60;;;;;;;21.16;58.25;99626.38;4336903;32;33438;-89
2022/06/07 02:25:44;;;;;;;3.10;1.55;;;;;;;21.22;58.00;99624.44;4349051;32;33983;-90
2022/06/07 02:28:13;;;;;;;3.10;1.77;;;;;;;21.13;58.23;99617.72;4349295;32;33504;-90
2022/06/07 02:30:41;;;;;;;3.12;1.50;;;;;;;21.07;58.31;99616.06;4349510;32;31828;-90
2022/06/07 02:33:10;;;;;;;3.53;1.60;;;;;;;21.07;58.20;99622.47;4348905;32;32968;-90
2022/06/07 02:35:41;;;;;;;3.15;1.80;;;;;;;21.07;58.26;99619.69;4349228;32;33923;-90
2022/06/07 02:38:09;;;;;;;2.90;1.67;;;;;;;21.02;58.30;99614.94;4361452;32;33844;-90
2022/06/07 02:40:42;;;;;;;3.78;1.45;;;;;;;21.02;58.29;99614.94;4349738;32;34361;-90
2022/06/07 02:43:09;;;;;;;3.50;1.90;;;;;;;21.07;58.10;99625.25;4349540;32;33085;-90
2022/06/07 02:45:39;;;;;;;3.33;1.40;;;;;;;21.12;57.91;99625.25;4349210;32;34757;-90
2022/06/07 02:48:13;;;;;;;2.50;1.55;;;;;;;20.94;58.49;99623.84;4337574;32;33504;-90
2022/06/07 02:50:41;;;;;;;4.18;1.75;;;;;;;20.97;58.32;99620.50;4337013;32;32316;-88
2022/06/07 02:53:13;;;;;;;3.60;1.65;;;;;;;20.91;58.54;99626.38;4349433;32;34537;-90
2022/06/07 02:55:44;;;;;;;4.28;1.92;;;;;;;20.86;58.54;99621.63;4336530;32;32598;-90
2022/06/07 02:58:13;;;;;;;4.05;1.73;;;;;;;20.93;58.36;99622.19;4349014;32;31716;-90
2022/06/07 03:00:41;;;;;;;3.33;1.48;;;;;;;20.82;58.71;99620.50;4336993;32;32575;-90
2022/06/07 03:03:15;;;;;;;7.82;2.10;;;;;;;20.89;58.43;99628.59;4349701;32;35354;-90
2022/06/07 03:05:48;;;;;;;4.15;1.67;;;;;;;20.85;58.70;99627.47;4337098;32;33199;-90
2022/06/07 03:08:21;;;;;;;4.18;1.70;;;;;;;20.86;58.75;99616.03;4349843;32;33233;-90
2022/06/07 03:10:50;;;;;;;3.08;1.62;;;;;;;20.86;58.77;99620.78;4348784;32;33489;-90
2022/06/07 03:13:18;;;;;;;3.05;1.50;;;;;;;20.90;58.87;99627.47;4337291;32;33560;-89
2022/06/07 03:15:49;;;;;;;2.83;1.30;;;;;;;20.81;59.25;99618.81;4348742;32;32412;-90
2022/06/07 03:18:21;;;;;;;3.58;1.42;;;;;;;20.77;59.25;99616.91;4337481;32;32543;-90
2022/06/07 03:20:51;;;;;;;2.78;1.42;;;;;;;20.70;59.44;99622.75;4348746;32;33022;-90
2022/06/07 03:23:20;;;;;;;5.90;2.33;;;;;;;20.89;58.82;99621.06;4348909;32;34392;-90
2022/06/07 03:25:50;;;;;;;3.42;1.80;;;;;;;20.90;58.91;99621.91;4336827;32;32303;-90
2022/06/07 03:28:18;;;;;;;2.72;1.60;;;;;;;20.68;59.63;99624.97;4348821;32;33399;-90
2022/06/07 03:30:46;;;;;;;5.78;2.40;;;;;;;20.85;59.14;99624.69;4336604;32;32354;-90
2022/06/07 03:33:16;;;;;;;4.55;2.20;;;;;;;20.82;59.37;99625.25;4325114;32;32919;-89
2022/06/07 03:35:46;;;;;;;3.58;1.80;;;;;;;20.94;59.21;99625.81;4348513;32;33239;-90
2022/06/07 03:38:17;;;;;;;4.03;2.05;;;;;;;20.90;59.69;99622.75;4350197;32;33165;-89
2022/06/07 03:40:45;;;;;;;3.08;1.60;;;;;;;20.97;59.70;99626.09;4351157;32;33665;-90
2022/06/07 03:43:15;;;;;;;4.37;2.08;;;;;;;20.92;60.10;99625.25;4350821;32;34254;-90
2022/06/07 03:45:43;;;;;;;5.20;1.87;;;;;;;20.97;60.03;99617.72;4338587;32;33572;-90
2022/06/07 03:48:11;;;;;;;3.78;1.50;;;;;;;20.87;60.45;99620.50;4338684;32;32876;-90
2022/06/07 03:50:45;;;;;;;3.80;1.77;;;;;;;20.97;60.10;99625.25;4350855;32;33281;-90
2022/06/07 03:53:13;;;;;;;3.35;1.77;;;;;;;20.92;60.33;99625.25;4338049;32;33169;-91
2022/06/07 03:55:44;;;;;;;2.70;1.45;;;;;;;21.01;60.03;99621.63;4350719;32;34161;-90
2022/06/07 03:58:17;;;;;;;3.85;1.80;;;;;;;21.02;60.11;99622.47;4350539;32;32737;-90
2022/06/07 04:00:48;;;;;;;4.40;1.70;;;;;;;21.15;59.88;99616.31;4362958;32;34370;-90
2022/06/07 04:03:19;;;;;;;4.32;1.65;;;;;;;21.12;60.25;99613.25;4350587;32;34381;-89
2022/06/07 04:05:50;;;;;;;2.75;1.65;;;;;;;21.16;60.35;99612.41;4350618;32;34083;-90
2022/06/07 04:08:20;;;;;;;3.85;1.42;;;;;;;21.23;60.34;99613.00;4351133;32;33463;-91
2022/06/07 04:10:47;;;;;;;5.72;1.62;;;;;;;21.25;60.42;99612.72;4350507;32;33921;-90
2022/06/07 04:13:19;;;;;;;2.80;1.52;;;;;;;21.20;61.00;99610.75;4350697;32;32836;-90
2022/06/07 04:15:48;;;;;;;3.40;1.75;;;;;;;21.29;60.84;99606.31;4350697;32;34034;-93
2022/06/07 04:18:16;;;;;;;3.97;2.20;;;;;;;21.28;61.14;99606.56;4337855;32;32672;-94
2022/06/07 04:20:54;;;;;;;4.18;2.30;;;;;;;21.42;60.71;99599.31;4350566;32;33511;-93
2022/06/07 04:23:23;;;;;;;4.90;1.95;;;;;;;21.44;60.87;99599.84;4351279;32;35409;-92
2022/06/07 04:25:51;;;;;;;4.55;2.25;;;;;;;21.54;60.51;99593.38;4338311;32;32568;-93
2022/06/07 04:28:21;;;;;;;4.45;1.80;;;;;;;21.59;60.50;99590.56;4350949;32;33307;-91
2022/06/07 04:30:56;;;;;;;4.80;2.15;;;;;;;21.73;59.84;99591.66;4350947;32;34713;-92
2022/06/07 04:33:29;;;;;;;4.12;1.98;;;;;;;21.77;59.67;99589.97;4339120;32;33099;-93
2022/06/07 04:36:02;;;;;;;4.03;2.10;;;;;;;21.84;59.38;99582.13;4350585;32;34120;-84
2022/06/07 04:38:34;;;;;;;3.97;2.00;;;;;;;21.90;59.49;99582.94;4362725;32;31379;-91
2022/06/07 04:41:07;;;;;;;4.85;1.90;;;;;;;22.07;58.85;99585.41;4351206;32;34311;-93
2022/06/07 04:43:38;;;;;;;4.15;2.12;;;;;;;22.18;58.35;99587.00;4338626;32;33947;-86
2022/06/07 04:46:14;;;;;;;4.50;2.00;;;;;;;22.27;58.38;99591.69;4350520;32;33636;-86
2022/06/07 04:48:44;;;;;;;4.85;2.30;;;;;;;22.44;57.64;99588.53;4349428;32;31579;-94
2022/06/07 04:51:25;;;;;;;3.50;1.85;;;;;;;22.39;57.93;99588.56;4338574;32;33287;-96
2022/06/07 04:53:58;;;;;;;6.18;3.22;;;;;;;22.53;57.59;99585.94;4350719;32;34400;-94
2022/06/07 04:56:39;;;;;;;8.00;4.27;;;;;;;22.60;57.26;99584.50;4338662;32;32530;-93
2022/06/07 04:59:16;;;;;;;10.18;6.30;;;;;;;22.62;57.47;99590.66;4350903;32;32987;-96
2022/06/07 05:01:50;;;;;;;7.35;4.22;;;;;;;22.65;57.49;99589.22;4338421;32;31996;-96
2022/06/07 05:04:21;;;;;;;5.85;3.10;;;;;;;22.77;57.25;99586.88;4338242;32;33931;-92
2022/06/07 05:06:58;;;;;;;4.87;2.47;;;;;;;22.88;56.89;99585.69;4350461;32;33371;-92
2022/06/07 05:09:31;;;;;;;4.95;2.67;;;;;;;23.04;56.40;99591.16;4338538;32;31950;-96
2022/06/07 05:12:05;;;;;;;5.80;3.30;;;;;;;23.09;56.55;99591.13;4338368;32;31865;-95
2022/06/07 05:14:38;;;;;;;12.18;6.32;;;;;;;23.11;56.59;99589.69;4362645;32;34311;-96
2022/06/07 05:17:09;;;;;;;12.30;6.55;;;;;;;23.22;56.33;99596.87;4350537;32;34258;-84
2022/06/07 05:19:45;;;;;;;5.32;2.47;;;;;;;23.21;56.63;99600.81;4347350;32;33222;-85
2022/06/07 05:22:17;;;;;;;5.85;1.80;;;;;;;23.27;55.92;99588.44;4361501;32;33517;-83
2022/06/07 05:24:45;;;;;;;8.00;3.83;;;;;;;23.14;55.94;99600.31;4362238;32;33904;-87
2022/06/07 05:27:18;;;;;;;2.92;1.67;;;;;;;23.32;55.98;99588.38;4350475;32;33740;-93
2022/06/07 05:29:50;;;;;;;5.53;3.28;;;;;;;23.41;55.25;99596.13;4350292;32;33118;-93
2022/06/07 05:32:23;;;;;;;3.62;1.62;;;;;;;23.59;55.07;99598.19;4350234;32;32142;-92
2022/06/07 05:34:57;;;;;;;4.22;2.22;;;;;;;23.74;55.34;99600.00;4337841;32;33963;-92
2022/06/07 05:37:31;;;;;;;3.60;2.08;;;;;;;23.53;54.35;99597.41;4337879;32;32442;-93
2022/06/07 05:40:08;;;;;;;4.80;2.40;;;;;;;23.73;54.53;99596.34;4338469;32;31788;-92
2022/06/07 05:42:46;;;;;;;4.35;1.70;;;;;;;23.89;53.90;99600.66;4349755;32;34056;-93
2022/06/07 05:45:18;;;;;;;3.00;1.80;;;;;;;23.97;53.71;99599.16;4349938;32;33009;-88
2022/06/07 05:47:52;;;;;;;3.62;1.70;;;;;;;24.14;54.49;99590.22;4350303;32;34806;-86
2022/06/07 05:50:31;;;;;;;4.47;1.87;;;;;;;24.14;53.34;99593.03;4358570;32;33214;-86
2022/06/07 05:53:02;;;;;;;4.40;2.10;;;;;;;24.25;52.86;99594.56;4367888;32;34844;-86
2022/06/07 05:55:40;;;;;;;4.47;2.17;;;;;;;24.23;52.51;99589.25;4365580;32;34286;-85
2022/06/07 05:58:08;;;;;;;3.92;1.95;;;;;;;24.35;52.12;99597.25;4352081;32;32331;-85
2022/06/07 06:00:39;;;;;;;5.15;2.10;;;;;;;24.54;51.90;99588.84;4363857;32;31842;-87
2022/06/07 06:03:11;;;;;;;7.32;2.17;;;;;;;24.60;52.39;99593.25;4364921;32;33512;-87
2022/06/07 06:06:09;;;;;;;24.33;17.35;;;;;;;24.65;52.36;99590.37;4364599;32;32870;-87
2022/06/07 06:11:27;;;;;;;23.87;17.40;;;;;;;24.77;52.09;99592.69;4364193;32;34105;-86
2022/06/07 06:14:01;;;;;;;5.07;2.75;;;;;;;24.90;52.25;99586.28;4364508;32;33561;-87
2022/06/07 06:16:30;;;;;;;5.93;2.10;;;;;;;24.74;53.99;99596.09;4352865;32;34245;-87
2022/06/07 06:19:02;;;;;;;4.15;1.77;;;;;;;24.98;52.79;99591.25;4352562;32;33590;-86
2022/06/07 06:21:38;;;;;;;4.85;1.73;;;;;;;25.04;52.30;99589.19;4352736;32;33830;-85
2022/06/07 06:24:11;;;;;;;;;;;;;;;25.17;51.82;99582.78;4363994;32;34739;-88
2022/06/07 06:26:45;;;;;;;9.40;5.32;;;;;;;25.25;52.03;99590.50;4351006;32;33684;-86
2022/06/07 06:29:17;;;;;;;5.40;3.10;;;;;;;25.30;50.52;99583.97;4351673;32;32736;-86
2022/06/07 06:31:51;;;;;;;4.28;1.90;;;;;;;25.34;50.98;99585.03;4352601;32;33371;-87
2022/06/07 06:34:20;;;;;;;7.37;3.45;;;;;;;25.41;50.03;99583.44;4352390;32;33687;-87
2022/06/07 06:36:48;;;;;;;6.87;2.85;;;;;;;25.34;48.35;99580.22;4364394;32;35050;-87
2022/06/07 06:39:27;;;;;;;4.15;2.42;;;;;;;25.26;47.68;99573.34;4353281;32;33950;-87
2022/06/07 06:41:59;;;;;;;4.45;2.25;;;;;;;25.50;47.60;99575.13;4352225;32;32676;-87
2022/06/07 06:44:30;;;;;;;3.95;1.85;;;;;;;25.65;47.40;99577.69;4352931;32;33818;-87
2022/06/07 06:47:07;;;;;;;3.12;1.60;;;;;;;25.69;46.76;99573.09;4352535;32;33514;-87
2022/06/07 06:49:40;;;;;;;3.22;1.77;;;;;;;25.88;46.31;99567.37;4340213;32;33420;-88
2022/06/07 06:52:10;;;;;;;4.12;1.90;;;;;;;26.08;46.60;99569.72;4349797;32;33195;-87
2022/06/07 06:54:38;;;;;;;23.92;4.05;;;;;;;26.12;45.78;99578.38;4349825;32;34524;-87
2022/06/07 06:57:06;;;;;;;25.35;3.60;;;;;;;26.22;46.28;99572.53;4361611;32;34470;-87
2022/06/07 06:59:34;;;;;;;21.02;9.45;;;;;;;26.19;45.42;99571.19;4361911;32;33993;-86
2022/06/07 07:02:03;;;;;;;12.98;7.53;;;;;;;25.96;45.46;99563.84;4349386;32;32723;-87
2022/06/07 07:04:37;;;;;;;7.65;4.75;;;;;;;26.12;45.06;99572.75;4361760;32;33707;-87
2022/06/07 07:07:07;;;;;;;9.18;4.78;;;;;;;26.28;44.65;99565.66;4361418;32;34318;-86
2022/06/07 07:09:37;;;;;;;8.48;2.90;;;;;;;26.40;44.99;99563.16;4361501;32;34863;-85
2022/06/07 07:12:06;;;;;;;9.95;4.00;;;;;;;26.46;45.48;99561.88;4362167;32;33369;-86
2022/06/07 07:14:37;;;;;;;7.07;2.40;;;;;;;26.52;45.19;99565.41;4363605;32;33847;-87
2022/06/07 07:17:06;;;;;;;3.50;1.80;;;;;;;26.54;45.91;99560.28;4363534;32;34539;-86
2022/06/07 07:19:36;;;;;;;4.07;1.85;;;;;;;26.58;45.33;99561.31;4363400;32;34370;-86
2022/06/07 07:22:08;;;;;;;3.58;1.50;;;;;;;26.57;43.76;99563.31;4363619;32;33426;-86
2022/06/07 07:24:40;;;;;;;6.53;1.90;;;;;;;26.52;45.00;99560.63;4364418;32;33784;-86
2022/06/07 07:27:09;;;;;;;4.00;1.80;;;;;;;26.61;45.49;99557.88;4363269;32;34390;-86
2022/06/07 07:29:40;;;;;;;7.50;3.53;;;;;;;26.63;45.68;99552.75;4350970;32;32580;-84
2022/06/07 07:32:08;;;;;;;3.50;2.00;;;;;;;26.77;44.50;99541.41;4363552;32;34225;-86
2022/06/07 07:34:39;;;;;;;2.65;1.48;;;;;;;26.80;44.96;99550.06;4363488;32;33722;-86
2022/06/07 07:37:10;;;;;;;3.22;1.67;;;;;;;26.45;44.33;99551.78;4363120;32;34578;-86
2022/06/07 07:39:42;;;;;;;6.32;2.05;;;;;;;26.71;43.36;99545.50;4351074;32;33432;-88
2022/06/07 07:42:13;;;;;;;2.83;1.50;;;;;;;26.67;43.83;99552.91;4351344;32;32314;-86
2022/06/07 07:44:44;;;;;;;3.72;1.77;;;;;;;26.91;43.40;99545.00;4363269;32;33892;-86
2022/06/07 07:47:12;;;;;;;5.07;1.65;;;;;;;27.04;42.65;99541.31;4363160;32;34645;-85
2022/06/07 07:49:40;;;;;;;4.87;1.60;;;;;;;26.93;44.15;99542.69;4363395;32;34773;-85
2022/06/07 07:52:08;;;;;;;2.92;1.73;;;;;;;26.84;44.24;99550.25;4350660;32;31973;-86
2022/06/07 07:54:39;;;;;;;3.40;1.50;;;;;;;26.99;42.91;99549.91;4363415;32;34427;-86
2022/06/07 07:57:09;;;;;;;3.80;2.10;;;;;;;27.08;41.96;99550.78;4360661;32;33902;-85
2022/06/07 07:59:42;;;;;;;8.25;2.62;;;;;;;27.15;41.52;99548.34;4351689;32;34008;-85
2022/06/07 08:02:20;;;;;;;2.47;1.42;;;;;;;27.27;41.54;99535.66;4350700;32;31783;-86
2022/06/07 08:04:52;;;;;;;4.62;1.67;;;;;;;27.40;42.25;99541.16;4362782;32;32836;-86
2022/06/07 08:07:23;;;;;;;3.83;1.73;;;;;;;27.46;41.68;99537.06;4339479;32;33957;-87
2022/06/07 08:09:51;;;;;;;4.30;1.70;;;;;;;27.44;41.52;99532.91;4350686;32;34807;-85
2022/06/07 08:12:22;;;;;;;4.65;1.95;;;;;;;27.45;41.79;99526.94;4362957;32;34057;-86
2022/06/07 08:14:53;;;;;;;3.50;1.85;;;;;;;27.47;42.19;99535.06;4350768;32;33300;-85
2022/06/07 08:17:21;;;;;;;6.00;1.85;;;;;;;27.50;41.55;99537.25;4350753;32;32833;-86
2022/06/07 08:19:52;;;;;;;3.67;2.00;;;;;;;27.77;40.95;99528.59;4362965;32;34006;-87
2022/06/07 08:22:21;;;;;;;3.40;1.83;;;;;;;27.85;40.96;99529.78;4338512;32;33035;-86
2022/06/07 08:24:53;;;;;;;4.07;1.92;;;;;;;27.92;41.01;99529.28;4350542;32;33993;-87
2022/06/07 08:27:24;;;;;;;3.78;1.92;;;;;;;27.87;41.36;99527.47;4350869;32;34639;-85
2022/06/07 08:29:55;;;;;;;5.78;1.90;;;;;;;27.85;40.81;99524.97;4351077;32;33893;-87
2022/06/07 08:32:26;;;;;;;3.53;1.85;;;;;;;28.00;40.44;99522.81;4351039;32;33399;-86
2022/06/07 08:37:48;;;;;;;3.42;1.65;;;;;;;27.76;39.83;99521.28;4363027;32;34410;-86
2022/06/07 08:40:43;;;;;;;4.80;1.75;;;;;;;28.21;39.09;99521.03;4363897;32;34799;-86
2022/06/07 08:43:16;;;;;;;4.65;1.95;;;;;;;28.40;39.25;99517.94;4350348;32;32631;-86
2022/06/07 08:45:47;;;;;;;4.05;1.50;;;;;;;28.61;38.14;99509.59;4362610;32;34436;-86
2022/06/07 08:48:26;;;;;;;3.60;1.60;;;;;;;28.54;37.36;99512.97;4350493;32;35389;-85
2022/06/07 08:51:26;;;;;;;6.62;1.67;;;;;;;28.62;38.19;99509.28;4350788;32;33771;-84
2022/06/07 08:54:04;;;;;;;4.10;2.08;;;;;;;28.65;37.57;99513.44;4362730;32;34098;-85
2022/06/07 08:56:34;;;;;;;3.97;1.67;;;;;;;28.39;38.32;99517.09;4350565;32;33211;-93
2022/06/07 08:59:21;;;;;;;3.92;1.92;;;;;;;28.46;38.19;99514.63;4350381;32;34934;-90
2022/06/07 09:02:05;;;;;;;3.22;1.70;;;;;;;28.48;37.08;99506.66;4350540;32;33749;-95
2022/06/07 09:04:36;;;;;;;7.72;2.03;;;;;;;28.91;36.79;99507.78;4348315;32;33041;-95
2022/06/07 09:07:15;;;;;;;3.85;1.65;;;;;;;29.11;36.82;99505.09;4351144;32;33892;-93
2022/06/07 09:12:39;;;;;;;4.12;1.80;;;;;;;29.06;37.31;99507.25;4352310;32;32540;-94
2022/06/07 09:15:21;;;;;;;5.18;2.00;;;;;;;29.05;36.94;99505.59;4338775;32;31982;-95
2022/06/07 09:17:56;;;;;;;7.03;1.75;;;;;;;29.11;36.08;99505.09;4350027;32;33676;-95
2022/06/07 09:20:39;;;;;;;4.03;1.90;;;;;;;29.36;35.78;99499.66;4351619;32;32910;-93
2022/06/07 09:23:27;;;;;;;5.55;2.00;;;;;;;29.37;35.72;99495.66;4362882;32;33964;-94
2022/06/07 09:25:58;;;;;;;3.45;1.60;;;;;;;29.41;35.59;99497.50;4363102;32;33223;-95
2022/06/07 09:28:32;;;;;;;3.03;1.52;;;;;;;29.70;34.66;99491.06;4349556;32;32429;-91
2022/06/07 09:31:03;;;;;;;4.90;1.50;;;;;;;29.68;35.35;99490.56;4361973;32;33736;-91
2022/06/07 09:33:35;;;;;;;8.98;2.65;;;;;;;29.61;34.50;99483.78;4350450;32;32519;-93
2022/06/07 09:36:18;;;;;;;4.65;2.75;;;;;;;29.85;34.61;99483.16;4349653;32;33234;-95
2022/06/07 09:39:00;;;;;;;7.28;1.83;;;;;;;29.75;35.03;99484.38;4350831;32;33068;-93
2022/06/07 09:41:40;;;;;;;3.50;1.50;;;;;;;30.03;34.29;99473.41;4362642;32;34421;-91
2022/06/07 09:44:31;;;;;;;2.90;1.67;;;;;;;30.36;34.02;99477.16;4350684;32;34612;-92
2022/06/07 09:47:12;;;;;;;4.10;1.77;;;;;;;30.33;33.75;99477.84;4350232;32;33401;-94
2022/06/07 09:49:53;;;;;;;5.53;2.12;;;;;;;30.51;33.63;99478.53;4362470;32;34372;-93
2022/06/07 09:52:31;;;;;;;3.05;1.67;;;;;;;30.68;33.97;99481.19;4362297;32;35378;-94
2022/06/07 09:55:04;;;;;;;7.50;2.10;;;;;;;31.09;30.97;99465.28;4362205;32;32629;-95
2022/06/07 09:57:49;;;;;;;4.07;1.95;;;;;;;31.11;31.47;99472.25;4350544;32;33344;-95
2022/06/07 10:00:46;;;;;;;3.23;1.70;;;;;;;31.37;31.44;99466.28;4350380;32;32788;-94
2022/06/07 10:03:29;;;;;;;3.25;1.40;;;;;;;31.64;31.81;99452.59;4362874;32;33352;-94
2022/06/07 10:06:13;;;;;;;4.10;1.40;;;;;;;31.30;30.79;99459.53;4350258;32;33512;-94
2022/06/07 10:08:56;;;;;;;3.03;1.45;;;;;;;31.47;31.62;99464.16;4350259;32;32351;-94
2022/06/07 10:11:34;;;;;;;2.22;1.10;;;;;;;31.49;31.70;99451.28;4362363;32;33890;-93
2022/06/07 10:14:23;;;;;;;3.20;1.40;;;;;;;31.68;30.14;99454.38;4362126;32;35310;-94
2022/06/07 10:16:57;;;;;;;7.05;1.50;;;;;;;31.94;31.04;99448.31;4350092;32;32448;-94
2022/06/07 10:19:58;;;;;;;2.37;1.40;;;;;;;32.13;29.54;99438.34;4350072;32;32238;-94
2022/06/07 10:22:42;;;;;;;2.70;1.50;;;;;;;32.35;29.26;99444.34;4349592;32;32525;-92
2022/06/07 10:25:23;;;;;;;2.62;1.37;;;;;;;32.33;29.85;99441.03;4361671;32;34224;-91
2022/06/07 10:27:51;;;;;;;6.28;1.67;;;;;;;32.23;29.53;99438.69;4361939;32;33045;-92
2022/06/07 10:30:21;;;;;;;3.92;1.90;;;;;;;32.10;29.86;99431.38;4362208;32;32703;-92
2022/06/07 10:33:13;;;;;;;3.55;1.40;;;;;;;31.81;31.56;99435.34;4349875;32;32980;-92
2022/06/07 10:35:48;;;;;;;3.70;1.70;;;;;;;31.56;31.67;99440.16;4349698;32;33868;-90
2022/06/07 10:38:39;;;;;;;3.42;1.92;;;;;;;31.51;31.76;99436.75;4361989;32;34731;-88
2022/06/07 10:41:33;;;;;;;5.22;1.37;;;;;;;31.30;32.87;99431.19;4360070;32;31759;-93
2022/06/07 10:44:10;;;;;;;6.28;1.80;;;;;;;31.47;32.34;99424.44;4349617;32;32079;-93
2022/06/07 10:46:43;;;;;;;6.72;1.45;;;;;;;31.85;32.36;99419.22;4361667;32;34683;-84
2022/06/07 10:49:22;;;;;;;5.80;1.40;;;;;;;31.87;31.19;99424.53;4361965;32;34614;-84
2022/06/07 10:52:20;;;;;;;10.00;1.77;;;;;;;31.90;31.01;99418.16;4361582;32;33528;-92
2022/06/07 10:55:22;;;;;;;5.85;1.70;;;;;;;31.80;31.74;99408.16;4349427;32;33158;-92
2022/06/07 10:58:21;;;;;;;2.70;1.30;;;;;;;31.89;30.77;99410.81;4362018;32;34096;-93
2022/06/07 11:00:57;;;;;;;15.02;2.47;;;;;;;31.79;30.12;99400.00;4343730;32;34189;-89
2022/06/07 11:03:41;;;;;;;5.30;1.20;;;;;;;31.91;30.14;99386.56;4349589;32;32863;-92
2022/06/07 11:09:48;;;;;;;5.78;1.70;;;;;;;32.25;29.97;99381.53;4361547;32;33003;-92
2022/06/07 11:12:27;;;;;;;2.78;1.60;;;;;;;32.30;30.67;99384.94;4361714;32;34049;-92
2022/06/07 11:15:06;;;;;;;3.70;1.62;;;;;;;31.98;28.96;99377.44;4361730;32;33533;-92
2022/06/07 11:18:01;;;;;;;2.15;1.20;;;;;;;31.83;30.32;99376.22;4349376;32;34597;-89
2022/06/07 11:20:50;;;;;;;2.80;1.23;;;;;;;32.15;29.18;99374.31;4361579;32;34248;-91
2022/06/07 11:23:30;;;;;;;5.18;1.95;;;;;;;32.24;29.62;99362.84;4361335;32;33677;-83
2022/06/07 11:26:04;;;;;;;3.03;1.20;;;;;;;32.69;29.66;99374.66;4349058;32;31491;-90
2022/06/07 11:28:38;;;;;;;6.00;1.35;;;;;;;32.87;28.51;99368.69;4359683;32;33654;-89
2022/06/07 11:31:15;;;;;;;2.37;1.20;;;;;;;33.02;27.46;99365.84;4346418;32;32859;-91
2022/06/07 11:33:52;;;;;;;4.03;1.30;;;;;;;33.08;28.58;99368.41;4346446;32;32376;-91
2022/06/07 11:36:20;;;;;;;3.83;1.35;;;;;;;33.23;28.73;99359.84;4346262;33;34028;-92
2022/06/07 11:39:27;;;;;;;2.97;1.30;;;;;;;33.43;27.43;99355.09;4346345;32;32875;-91
2022/06/07 11:42:25;;;;;;;5.00;1.30;;;;;;;33.80;27.27;99347.03;4324720;33;33497;-91
2022/06/07 11:45:16;;;;;;;4.00;1.25;;;;;;;33.65;26.64;99336.50;4345932;33;33844;-91
2022/06/07 11:47:46;;;;;;;3.97;1.10;;;;;;;34.04;26.74;99343.06;4345815;33;31652;-91
2022/06/07 11:50:42;;;;;;;2.45;1.35;;;;;;;34.24;26.78;99347.56;4333726;33;33001;-91
2022/06/07 11:53:33;;;;;;;5.15;1.50;;;;;;;34.53;26.10;99337.56;4357314;32;35359;-91
2022/06/07 11:56:21;;;;;;;2.65;1.15;;;;;;;34.59;25.98;99329.53;4356225;32;34021;-90
2022/06/07 11:59:01;;;;;;;2.17;1.15;;;;;;;34.82;25.87;99338.16;4346989;33;34200;-90
2022/06/07 12:01:41;;;;;;;3.15;1.25;;;;;;;34.99;23.99;99332.75;4348099;33;32504;-91
2022/06/07 12:04:36;;;;;;;2.47;1.30;;;;;;;35.18;23.30;99336.72;4335955;33;32939;-90
2022/06/07 12:07:18;;;;;;;1.52;1.20;;;;;;;35.19;22.69;99324.91;4336756;33;34064;-91
2022/06/07 12:09:57;;;;;;;4.22;1.20;;;;;;;35.32;22.35;99326.41;4336096;33;31809;-90
2022/06/07 12:12:36;;;;;;;2.33;1.30;;;;;;;34.93;23.34;99314.31;4348555;33;33592;-91
2022/06/07 12:15:15;;;;;;;2.78;1.52;;;;;;;34.86;23.77;99301.97;4347577;33;34453;-91
2022/06/07 12:17:59;;;;;;;4.97;1.35;;;;;;;34.55;23.97;99312.38;4335248;33;33245;-91
2022/06/07 12:20:35;;;;;;;2.72;1.50;;;;;;;34.26;24.13;99311.00;4324098;33;31772;-91
2022/06/07 12:23:20;;;;;;;2.62;1.60;;;;;;;34.06;24.74;99303.66;4348380;33;34463;-91
2022/06/07 12:25:59;;;;;;;2.20;1.30;;;;;;;34.29;24.88;99310.22;4348855;32;32939;-92
2022/06/07 12:28:30;;;;;;;3.70;2.42;;;;;;;34.44;25.12;99307.69;4348301;33;34613;-93